Time;durP1;ratioP1;P1;durP2;ratioP2;P2;SDS_P1;SDS_P2;PMS_P1;PMS_P2;Temp;Humidity;BMP_temperature;BMP_pressure;BME280_temperature;BME280_humidity;BME280_pressure;Samples;Min_cycle;Max_cycle;Signal;HPM_P1;HPM_P2
2023/11/25 00:00:55;;;;;;;2.10;0.50;;;;;;;1.00;100.00;98291.21;105323;1254;60477;-54
2023/11/25 00:03:23;;;;;;;3.40;0.50;;;;;;;0.97;100.00;98288.48;107178;1258;73889;-53
2023/11/25 00:05:50;;;;;;;3.70;0.50;;;;;;;0.93;100.00;98285.27;105907;1259;66972;-53
2023/11/25 00:08:19;;;;;;;3.00;0.60;;;;;;;0.90;100.00;98288.00;105402;1257;71926;-54
2023/11/25 00:10:47;;;;;;;1.30;0.50;;;;;;;0.87;100.00;98286.69;107300;1254;61860;-54
2023/11/25 00:13:15;;;;;;;1.60;0.40;;;;;;;0.85;100.00;98286.25;106189;1253;60436;-54
2023/11/25 00:15:42;;;;;;;1.80;0.50;;;;;;;0.83;100.00;98281.71;105443;1257;72589;-53
2023/11/25 00:18:10;;;;;;;1.50;0.50;;;;;;;0.82;100.00;98282.45;105531;1259;65780;-54
2023/11/25 00:20:37;;;;;;;1.30;0.50;;;;;;;0.81;100.00;98276.47;107058;1256;71910;-53
2023/11/25 00:23:05;;;;;;;2.00;0.50;;;;;;;0.79;100.00;98282.88;105226;1258;60550;-54
2023/11/25 00:25:32;;;;;;;1.60;0.50;;;;;;;0.76;100.00;98280.35;105387;1257;60572;-55
2023/11/25 00:28:00;;;;;;;2.60;0.40;;;;;;;0.72;100.00;98284.34;105248;1253;72640;-55
2023/11/25 00:30:27;;;;;;;2.80;0.70;;;;;;;0.68;100.00;98282.88;105168;1261;66199;-54
2023/11/25 00:32:56;;;;;;;0.90;0.50;;;;;;;0.64;100.00;98282.14;105563;1258;71412;-53
2023/11/25 00:35:25;;;;;;;3.40;0.50;;;;;;;0.60;100.00;98282.95;106703;1259;60550;-53
2023/11/25 00:37:53;;;;;;;3.20;0.60;;;;;;;0.57;100.00;98281.32;105509;1258;60505;-55
2023/11/25 00:40:20;;;;;;;3.20;0.50;;;;;;;0.54;100.00;98284.20;105534;1253;72378;-53
2023/11/25 00:42:48;;;;;;;3.70;0.50;;;;;;;0.54;100.00;98286.54;105503;1259;66898;-54
2023/11/25 00:45:15;;;;;;;4.70;0.50;;;;;;;0.52;100.00;98283.40;105400;1260;73402;-54
2023/11/25 00:47:43;;;;;;;1.90;0.40;;;;;;;0.51;100.00;98286.41;105265;1260;60542;-55
2023/11/25 00:50:10;;;;;;;2.30;0.60;;;;;;;0.52;100.00;98289.58;105305;1253;60621;-55
2023/11/25 00:52:38;;;;;;;1.40;0.50;;;;;;;0.52;100.00;98292.73;105241;1254;73841;-54
2023/11/25 00:55:07;;;;;;;2.40;0.30;;;;;;;0.53;100.00;98296.96;105563;1255;65700;-53
2023/11/25 00:57:35;;;;;;;2.30;0.50;;;;;;;0.54;100.00;98302.40;105643;1260;71446;-53
2023/11/25 01:00:15;;;;;;;2.40;0.50;;;;;;;0.55;100.00;98300.25;105353;1254;60943;-54
2023/11/25 01:02:44;;;;;;;4.40;0.50;;;;;;;0.56;100.00;98303.77;105819;1259;60533;-53
2023/11/25 01:05:12;;;;;;;2.50;0.50;;;;;;;0.56;100.00;98310.30;106305;1259;73358;-55
2023/11/25 01:07:39;;;;;;;3.30;0.70;;;;;;;0.56;100.00;98317.54;105338;1257;67062;-55
2023/11/25 01:10:07;;;;;;;2.40;0.60;;;;;;;0.55;100.00;98318.23;105349;1256;72666;-55
2023/11/25 01:12:35;;;;;;;1.90;0.60;;;;;;;0.54;100.00;98315.80;106437;1258;60452;-55
2023/11/25 01:15:03;;;;;;;1.80;0.50;;;;;;;0.53;100.00;98312.50;105353;1264;60383;-54
2023/11/25 01:17:32;;;;;;;2.30;0.60;;;;;;;0.50;100.00;98307.14;105723;1256;74027;-54
2023/11/25 01:20:00;;;;;;;3.10;0.50;;;;;;;0.48;100.00;98304.54;105311;1258;67241;-55
2023/11/25 01:22:27;;;;;;;2.40;0.50;;;;;;;0.46;100.00;98296.84;106228;1254;71065;-55
2023/11/25 01:24:56;;;;;;;1.00;0.40;;;;;;;0.44;100.00;98288.40;105251;1260;61247;-53
2023/11/25 01:27:23;;;;;;;5.10;0.50;;;;;;;0.43;100.00;98278.02;105319;1254;60430;-53
2023/11/25 01:29:51;;;;;;;1.40;0.60;;;;;;;0.42;100.00;98279.11;105224;1260;73353;-51
2023/11/25 01:32:19;;;;;;;2.60;0.50;;;;;;;0.41;100.00;98285.18;105453;1259;67391;-54
2023/11/25 01:34:47;;;;;;;1.00;0.40;;;;;;;0.40;100.00;98295.45;105542;1254;71999;-54
2023/11/25 01:37:17;;;;;;;2.30;0.40;;;;;;;0.39;100.00;98292.11;105431;1257;60456;-54
2023/11/25 01:39:46;;;;;;;2.40;0.70;;;;;;;0.39;100.00;98301.98;105414;1259;60470;-54
2023/11/25 01:42:14;;;;;;;4.20;0.70;;;;;;;0.40;100.00;98309.92;105731;1257;74380;-56
2023/11/25 01:44:42;;;;;;;2.50;0.60;;;;;;;0.40;100.00;98313.45;105400;1257;65774;-54
2023/11/25 01:47:11;;;;;;;3.10;0.60;;;;;;;0.41;100.00;98319.05;105452;1255;71408;-56
2023/11/25 01:49:40;;;;;;;2.50;0.60;;;;;;;0.43;100.00;98319.48;105261;1268;60670;-53
2023/11/25 01:52:08;;;;;;;1.50;0.60;;;;;;;0.45;100.00;98317.50;105569;1254;61810;-54
2023/11/25 01:54:35;;;;;;;2.40;0.60;;;;;;;0.48;100.00;98317.25;105422;1260;72220;-53
2023/11/25 01:57:04;;;;;;;6.30;0.70;;;;;;;0.50;100.00;98320.36;105511;1254;66320;-54
2023/11/25 01:59:32;;;;;;;2.00;0.60;;;;;;;0.51;100.00;98327.55;105557;1257;71485;-53
2023/11/25 02:02:00;;;;;;;3.90;0.80;;;;;;;0.54;100.00;98333.83;105223;1254;60449;-55
2023/11/25 02:04:28;;;;;;;4.60;0.60;;;;;;;0.56;100.00;98341.52;108830;1253;60054;-55
2023/11/25 02:06:56;;;;;;;1.30;0.50;;;;;;;0.58;100.00;98346.23;109019;1254;72133;-55
2023/11/25 02:09:24;;;;;;;4.10;0.60;;;;;;;0.61;100.00;98347.54;107490;1259;65802;-55
2023/11/25 02:11:54;;;;;;;3.90;0.60;;;;;;;0.65;100.00;98352.21;105361;1257;72632;-55
2023/11/25 02:14:25;;;;;;;1.40;0.40;;;;;;;0.68;100.00;98359.85;105864;1258;60541;-53
2023/11/25 02:16:54;;;;;;;1.00;0.50;;;;;;;0.72;100.00;98371.92;105775;1254;60585;-52
2023/11/25 02:19:21;;;;;;;3.50;0.70;;;;;;;0.77;100.00;98381.15;105559;1257;73838;-56
2023/11/25 02:21:49;;;;;;;5.40;0.90;;;;;;;0.81;100.00;98387.55;105199;1260;65632;-53
2023/11/25 02:24:17;;;;;;;1.50;0.50;;;;;;;0.84;100.00;98389.23;105296;1264;72508;-56
2023/11/25 02:26:44;;;;;;;1.20;0.50;;;;;;;0.86;100.00;98386.13;105408;1257;60636;-55
2023/11/25 02:29:12;;;;;;;1.50;0.50;;;;;;;0.89;100.00;98384.30;106389;1261;60441;-55
2023/11/25 02:31:40;;;;;;;2.00;0.50;;;;;;;0.91;100.00;98390.41;105389;1254;73839;-55
2023/11/25 02:34:09;;;;;;;1.90;0.60;;;;;;;0.93;100.00;98394.60;105766;1258;65911;-56
2023/11/25 02:36:38;;;;;;;2.10;0.60;;;;;;;0.93;100.00;98393.69;106195;1258;72711;-55
2023/11/25 02:39:06;;;;;;;1.60;0.60;;;;;;;0.92;100.00;98396.39;106929;1254;60578;-56
2023/11/25 02:41:35;;;;;;;3.80;1.20;;;;;;;0.91;100.00;98401.73;105379;1258;60676;-56
2023/11/25 02:44:07;;;;;;;3.30;0.60;;;;;;;0.89;100.00;98409.38;105693;1257;73965;-55
2023/11/25 02:46:34;;;;;;;3.10;0.80;;;;;;;0.86;100.00;98420.92;105202;1260;65693;-52
2023/11/25 02:49:02;;;;;;;5.20;0.70;;;;;;;0.84;100.00;98425.61;105175;1254;71589;-56
2023/11/25 02:51:29;;;;;;;3.80;0.60;;;;;;;0.82;100.00;98424.78;105349;1259;60351;-55
2023/11/25 02:53:57;;;;;;;1.20;0.50;;;;;;;0.82;100.00;98421.42;105388;1253;60448;-55
2023/11/25 02:56:25;;;;;;;2.20;0.60;;;;;;;0.83;100.00;98415.41;105304;1260;73171;-56
2023/11/25 02:58:52;;;;;;;3.00;0.50;;;;;;;0.84;100.00;98411.46;105313;1257;67045;-55
2023/11/25 03:01:23;;;;;;;2.40;0.50;;;;;;;0.86;100.00;98411.05;105364;1258;71365;-56
2023/11/25 03:03:53;;;;;;;1.80;0.50;;;;;;;0.88;100.00;98422.30;105316;1257;60550;-55
2023/11/25 03:06:22;;;;;;;4.40;0.80;;;;;;;0.90;100.00;98428.95;105339;1258;60455;-56
2023/11/25 03:08:51;;;;;;;6.60;0.70;;;;;;;0.92;100.00;98445.14;106070;1254;72674;-56
2023/11/25 03:11:20;;;;;;;3.30;0.80;;;;;;;0.94;100.00;98451.27;105247;1261;66289;-54
2023/11/25 03:13:48;;;;;;;2.40;0.80;;;;;;;0.95;100.00;98454.94;105570;1254;71428;-56
2023/11/25 03:16:24;;;;;;;4.30;1.00;;;;;;;0.95;100.00;98449.45;105683;1254;60639;-55
2023/11/25 03:18:52;;;;;;;3.00;0.70;;;;;;;0.95;100.00;98450.16;105661;1254;60744;-54
2023/11/25 03:21:20;;;;;;;6.20;1.10;;;;;;;0.93;100.00;98433.11;105323;1254;73871;-54
2023/11/25 03:23:47;;;;;;;1.90;0.80;;;;;;;0.89;100.00;98427.90;105867;1258;67501;-56
2023/11/25 03:26:15;;;;;;;4.60;0.90;;;;;;;0.86;100.00;98427.30;105296;1254;71009;-56
2023/11/25 03:28:44;;;;;;;2.00;0.60;;;;;;;0.83;100.00;98431.13;105314;1253;60556;-56
2023/11/25 03:31:12;;;;;;;2.50;0.50;;;;;;;0.79;100.00;98438.63;105427;1255;60531;-56
2023/11/25 03:33:40;;;;;;;3.00;0.70;;;;;;;0.75;100.00;98443.69;105365;1258;71702;-55
2023/11/25 03:36:07;;;;;;;3.20;0.60;;;;;;;0.72;100.00;98445.55;109102;1253;67125;-56
2023/11/25 03:38:35;;;;;;;2.60;0.70;;;;;;;0.71;100.00;98448.58;109031;1254;73133;-57
2023/11/25 03:41:02;;;;;;;2.30;0.60;;;;;;;0.70;100.00;98449.84;108948;1253;59688;-56
2023/11/25 03:43:30;;;;;;;1.00;0.60;;;;;;;0.70;100.00;98453.55;109071;1254;60391;-57
2023/11/25 03:45:57;;;;;;;2.00;0.90;;;;;;;0.69;100.00;98451.64;108947;1254;73928;-57
2023/11/25 03:48:25;;;;;;;1.90;0.60;;;;;;;0.68;100.00;98450.42;109111;1255;66932;-57
2023/11/25 03:50:53;;;;;;;4.20;0.70;;;;;;;0.67;100.00;98452.24;108925;1253;72840;-57
2023/11/25 03:53:22;;;;;;;2.50;0.70;;;;;;;0.64;100.00;98454.09;108876;1253;59502;-57
2023/11/25 03:55:49;;;;;;;1.80;0.70;;;;;;;0.62;100.00;98461.90;108914;1254;60006;-57
2023/11/25 03:58:18;;;;;;;2.60;1.10;;;;;;;0.58;100.00;98465.73;108986;1252;73932;-57
2023/11/25 04:00:46;;;;;;;4.40;0.80;;;;;;;0.55;100.00;98470.94;109048;1254;67088;-57
2023/11/25 04:03:13;;;;;;;1.70;0.70;;;;;;;0.52;100.00;98476.66;109052;1253;73279;-57
2023/11/25 04:05:41;;;;;;;3.20;0.70;;;;;;;0.50;100.00;98473.77;108942;1254;59320;-57
2023/11/25 04:08:08;;;;;;;2.40;0.70;;;;;;;0.47;100.00;98472.77;108969;1254;58905;-57
2023/11/25 04:10:36;;;;;;;2.50;0.70;;;;;;;0.42;100.00;98476.27;108996;1254;72649;-57
2023/11/25 04:13:04;;;;;;;2.30;0.80;;;;;;;0.37;100.00;98481.51;109010;1254;65779;-57
2023/11/25 04:15:32;;;;;;;2.00;0.90;;;;;;;0.33;100.00;98480.91;109055;1254;73330;-57
2023/11/25 04:18:00;;;;;;;4.80;0.70;;;;;;;0.30;100.00;98477.30;107740;1254;60952;-55
2023/11/25 04:20:28;;;;;;;4.00;0.90;;;;;;;0.27;100.00;98470.50;105226;1259;60502;-56
2023/11/25 04:23:05;;;;;;;2.20;0.70;;;;;;;0.24;100.00;98480.65;105380;1254;74173;-56
2023/11/25 04:25:34;;;;;;;3.60;0.80;;;;;;;0.21;100.00;98490.08;105451;1257;65774;-56
2023/11/25 04:28:04;;;;;;;2.30;0.90;;;;;;;0.18;100.00;98484.50;109021;1253;73257;-58
2023/11/25 04:30:32;;;;;;;3.30;0.80;;;;;;;0.17;100.00;98477.14;107953;1254;60822;-56
2023/11/25 04:32:59;;;;;;;4.10;1.00;;;;;;;0.16;100.00;98457.77;105265;1258;60387;-54
2023/11/25 04:35:27;;;;;;;5.10;0.80;;;;;;;0.15;100.00;98455.14;105503;1257;73114;-57
2023/11/25 04:37:54;;;;;;;2.70;1.00;;;;;;;0.14;100.00;98469.11;105330;1254;66859;-56
2023/11/25 04:40:22;;;;;;;4.60;1.10;;;;;;;0.12;100.00;98475.85;105450;1254;72738;-57
2023/11/25 04:42:49;;;;;;;5.20;1.10;;;;;;;0.11;100.00;98482.93;105259;1254;60505;-57
2023/11/25 04:45:18;;;;;;;3.50;1.00;;;;;;;0.09;100.00;98485.80;105410;1254;61033;-57
2023/11/25 04:47:48;;;;;;;2.70;1.00;;;;;;;0.06;100.00;98484.32;106147;1254;71660;-56
2023/11/25 04:50:17;;;;;;;4.90;1.10;;;;;;;0.01;100.00;98491.66;107742;1253;65718;-57
2023/11/25 04:52:44;;;;;;;2.00;0.80;;;;;;;-0.04;100.00;98493.38;105394;1257;70449;-57
2023/11/25 04:55:12;;;;;;;3.50;0.90;;;;;;;-0.08;100.00;98486.95;106164;1257;60656;-57
2023/11/25 04:57:40;;;;;;;5.10;1.20;;;;;;;-0.13;100.00;98487.95;104550;1257;3380132;-58
2023/11/25 05:01:18;;;;;;;6.30;1.10;;;;;;;-0.17;100.00;98560.55;102136;1290;600685;-57
2023/11/25 05:03:47;;;;;;;2.60;0.80;;;;;;;-0.22;100.00;98567.02;104443;1272;60852;-57
2023/11/25 05:06:14;;;;;;;3.20;0.90;;;;;;;-0.25;100.00;98556.67;105185;1263;59538;-56
2023/11/25 05:08:41;;;;;;;4.80;1.00;;;;;;;-0.27;100.00;98553.57;104806;1263;72359;-57
2023/11/25 05:11:10;;;;;;;5.10;0.90;;;;;;;-0.28;100.00;98559.75;104824;1264;65693;-57
2023/11/25 05:13:37;;;;;;;3.00;0.90;;;;;;;-0.30;100.00;98566.84;104909;1263;72753;-58
2023/11/25 05:16:05;;;;;;;8.00;1.20;;;;;;;-0.31;100.00;98580.09;102635;1259;3420786;-58
2023/11/25 05:18:33;;;;;;;2.20;1.00;;;;;;;-0.33;100.00;98578.17;105425;1256;59238;-57
2023/11/25 05:21:02;;;;;;;8.00;1.10;;;;;;;-0.33;100.00;98578.55;105147;1256;72278;-57
2023/11/25 05:23:29;;;;;;;4.80;1.00;;;;;;;-0.34;100.00;98568.35;105255;1256;69006;-57
2023/11/25 05:25:56;;;;;;;5.80;1.20;;;;;;;-0.34;100.00;98550.55;105098;1262;72492;-57
2023/11/25 05:28:24;;;;;;;3.30;1.20;;;;;;;-0.34;100.00;98560.98;105306;1262;59858;-57
2023/11/25 05:30:51;;;;;;;6.10;1.30;;;;;;;-0.34;100.00;98562.56;105173;1261;59614;-57
2023/11/25 05:33:19;;;;;;;5.70;1.50;;;;;;;-0.36;100.00;98561.71;104941;1256;74178;-57
2023/11/25 05:35:47;;;;;;;10.80;1.20;;;;;;;-0.37;100.00;98565.95;105113;1256;67238;-58
2023/11/25 05:38:15;;;;;;;2.70;1.20;;;;;;;-0.38;100.00;98571.45;108549;1256;71475;-58
2023/11/25 05:40:43;;;;;;;8.60;1.20;;;;;;;-0.40;100.00;98570.59;106172;1257;59746;-57
2023/11/25 05:43:11;;;;;;;5.30;1.60;;;;;;;-0.41;100.00;98562.33;105236;1261;59676;-57
2023/11/25 05:45:40;;;;;;;6.70;1.20;;;;;;;-0.42;100.00;98562.54;104627;1261;72613;-58
2023/11/25 05:48:08;;;;;;;4.20;1.50;;;;;;;-0.44;100.00;98565.95;105039;1256;65729;-57
2023/11/25 05:50:36;;;;;;;7.30;2.20;;;;;;;-0.45;100.00;98554.33;104769;1259;72709;-57
2023/11/25 05:53:04;;;;;;;6.50;1.80;;;;;;;-0.45;100.00;98544.64;104782;1262;59653;-57
2023/11/25 05:55:32;;;;;;;7.40;1.70;;;;;;;-0.45;100.00;98550.98;105109;1256;61099;-57
2023/11/25 05:57:59;;;;;;;10.00;2.00;;;;;;;-0.44;100.00;98556.61;105207;1261;71314;-57
2023/11/25 06:00:29;;;;;;;9.40;1.80;;;;;;;-0.43;100.00;98564.36;105037;1262;65809;-57
2023/11/25 06:02:57;;;;;;;10.40;1.60;;;;;;;-0.41;100.00;98560.39;105459;1262;70434;-57
2023/11/25 06:05:24;;;;;;;7.20;2.20;;;;;;;-0.40;100.00;98564.78;105068;1261;61212;-57
2023/11/25 06:07:51;;;;;;;6.40;1.90;;;;;;;-0.39;100.00;98574.11;105117;1262;59664;-57
2023/11/25 06:10:19;;;;;;;4.90;1.60;;;;;;;-0.37;100.00;98571.61;105149;1257;71739;-56
2023/11/25 06:12:47;;;;;;;6.20;1.80;;;;;;;-0.36;100.00;98563.64;105057;1264;66056;-55
2023/11/25 06:15:15;;;;;;;7.20;1.60;;;;;;;-0.32;100.00;98550.84;104889;1259;71411;-57
2023/11/25 06:17:45;;;;;;;5.00;1.20;;;;;;;-0.29;100.00;98543.38;104968;1260;59721;-56
2023/11/25 06:20:13;;;;;;;7.10;2.10;;;;;;;-0.25;100.00;98544.50;105052;1256;60112;-57
2023/11/25 06:22:41;;;;;;;6.30;1.90;;;;;;;-0.20;100.00;98535.23;105485;1262;72182;-57
2023/11/25 06:25:08;;;;;;;4.00;1.70;;;;;;;-0.17;100.00;98529.84;105136;1257;66688;-57
2023/11/25 06:27:36;;;;;;;8.70;2.10;;;;;;;-0.14;100.00;98518.32;105018;1260;72751;-55
2023/11/25 06:30:04;;;;;;;4.10;1.80;;;;;;;-0.10;100.00;98528.81;105108;1256;59875;-56
2023/11/25 06:32:32;;;;;;;5.10;1.50;;;;;;;-0.08;100.00;98538.45;108690;1256;60514;-58
2023/11/25 06:35:00;;;;;;;7.40;1.70;;;;;;;-0.06;100.00;98547.02;108778;1257;72410;-58
2023/11/25 06:37:28;;;;;;;7.20;2.50;;;;;;;-0.05;100.00;98549.65;108709;1256;67337;-58
2023/11/25 06:39:56;;;;;;;4.50;1.60;;;;;;;-0.04;100.00;98549.45;108689;1258;73137;-58
2023/11/25 06:42:25;;;;;;;6.30;1.80;;;;;;;-0.02;100.00;98546.77;108673;1256;59741;-55
2023/11/25 06:44:52;;;;;;;4.60;1.40;;;;;;;-0.01;100.00;98542.14;108697;1260;59399;-57
2023/11/25 06:47:19;;;;;;;4.50;1.40;;;;;;;0.02;100.00;98541.36;108598;1257;73632;-58
2023/11/25 06:49:50;;;;;;;4.60;1.70;;;;;;;0.06;100.00;98540.41;108731;1256;65938;-58
2023/11/25 06:52:18;;;;;;;5.20;1.70;;;;;;;0.08;100.00;98538.23;108753;1256;72870;-56
2023/11/25 06:54:46;;;;;;;4.00;1.80;;;;;;;0.11;100.00;98541.15;108743;1257;59634;-57
2023/11/25 06:57:15;;;;;;;6.90;1.70;;;;;;;0.16;100.00;98539.63;108653;1256;60236;-56
2023/11/25 06:59:45;;;;;;;5.60;2.10;;;;;;;0.20;100.00;98545.67;108750;1256;73222;-56
2023/11/25 07:02:13;;;;;;;6.60;2.50;;;;;;;0.25;100.00;98548.37;108755;1261;66969;-56
2023/11/25 07:04:41;;;;;;;5.60;2.10;;;;;;;0.29;100.00;98558.83;108769;1256;73048;-57
2023/11/25 07:07:08;;;;;;;4.30;1.90;;;;;;;0.35;100.00;98560.63;108818;1262;60989;-57
2023/11/25 07:09:36;;;;;;;4.00;2.90;;;;;;;0.40;100.00;98568.80;108869;1256;59025;-57
2023/11/25 07:12:04;;;;;;;8.40;3.10;;;;;;;0.45;100.00;98577.30;107450;1261;73080;-54
2023/11/25 07:14:32;;;;;;;6.10;3.10;;;;;;;0.52;100.00;98579.40;104957;1264;66955;-55
2023/11/25 07:16:59;;;;;;;5.20;2.60;;;;;;;0.58;100.00;98581.02;105145;1259;71914;-56
2023/11/25 07:19:27;;;;;;;5.70;3.20;;;;;;;0.62;100.00;98588.48;105313;1262;59750;-55
2023/11/25 07:21:55;;;;;;;5.30;2.60;;;;;;;0.65;100.00;98584.88;105989;1257;61078;-55
2023/11/25 07:24:27;;;;;;;5.50;2.30;;;;;;;0.69;100.00;98589.73;105138;1257;71838;-55
2023/11/25 07:27:01;;;;;;;7.10;2.60;;;;;;;0.71;100.00;98593.36;105152;1256;66177;-55
2023/11/25 07:29:31;;;;;;;8.80;1.90;;;;;;;0.74;100.00;98594.88;105028;1260;72738;-55
2023/11/25 07:32:00;;;;;;;5.20;1.60;;;;;;;0.77;100.00;98604.50;104999;1262;60900;-56
2023/11/25 07:34:29;;;;;;;4.70;1.90;;;;;;;0.82;100.00;98606.33;105438;1260;59731;-56
2023/11/25 07:36:58;;;;;;;3.70;1.70;;;;;;;0.86;100.00;98611.67;105579;1260;73643;-55
2023/11/25 07:39:29;;;;;;;4.20;1.40;;;;;;;0.91;100.00;98626.73;104965;1256;66716;-55
2023/11/25 07:41:57;;;;;;;4.20;1.30;;;;;;;0.98;100.00;98645.80;105097;1262;71775;-55
2023/11/25 07:44:31;;;;;;;2.40;1.30;;;;;;;1.05;100.00;98662.38;106602;1259;59861;-55
2023/11/25 07:47:01;;;;;;;3.10;0.90;;;;;;;1.11;100.00;98679.35;106281;1262;59866;-55
2023/11/25 07:49:29;;;;;;;5.70;0.90;;;;;;;1.18;100.00;98683.92;104829;1262;71855;-55
2023/11/25 07:51:57;;;;;;;2.30;1.00;;;;;;;1.25;100.00;98679.67;104410;1262;67049;-55
2023/11/25 07:54:25;;;;;;;4.10;1.10;;;;;;;1.32;100.00;98677.36;105178;1256;74136;-55
2023/11/25 07:56:53;;;;;;;3.70;1.20;;;;;;;1.39;100.00;98678.92;105082;1257;59610;-55
2023/11/25 07:59:20;;;;;;;3.80;1.10;;;;;;;1.45;100.00;98682.45;105311;1256;59657;-55
2023/11/25 08:01:48;;;;;;;2.90;1.20;;;;;;;1.51;100.00;98685.99;105187;1262;72172;-55
2023/11/25 08:04:16;;;;;;;6.60;1.60;;;;;;;1.58;100.00;98687.76;105004;1262;65653;-55
2023/11/25 08:06:44;;;;;;;2.60;1.10;;;;;;;1.63;100.00;98688.11;105881;1262;72594;-55
2023/11/25 08:09:18;;;;;;;4.80;1.40;;;;;;;1.68;100.00;98687.63;105165;1261;60953;-55
2023/11/25 08:11:45;;;;;;;4.10;1.30;;;;;;;1.73;100.00;98685.86;105144;1256;59753;-55
2023/11/25 08:14:13;;;;;;;3.50;1.10;;;;;;;1.77;100.00;98682.92;105180;1262;73045;-55
2023/11/25 08:16:41;;;;;;;4.20;1.10;;;;;;;1.82;100.00;98676.77;105017;1262;67404;-54
2023/11/25 08:19:09;;;;;;;3.60;1.00;;;;;;;1.85;100.00;98676.48;105100;1262;71356;-55
2023/11/25 08:21:36;;;;;;;2.70;1.10;;;;;;;1.89;100.00;98679.56;105101;1262;60361;-55
2023/11/25 08:24:05;;;;;;;4.50;2.20;;;;;;;1.93;100.00;98673.79;105222;1261;59618;-54
2023/11/25 08:26:34;;;;;;;3.90;1.90;;;;;;;1.99;100.00;98675.35;105148;1262;71592;-55
2023/11/25 08:29:03;;;;;;;7.70;2.70;;;;;;;2.05;100.00;98677.13;107705;1256;66613;-55
2023/11/25 08:31:30;;;;;;;8.60;4.00;;;;;;;2.10;100.00;98679.81;105108;1262;74881;-55
2023/11/25 08:34:03;;;;;;;4.00;2.50;;;;;;;2.13;100.00;98680.75;105024;1260;59701;-55
2023/11/25 08:36:31;;;;;;;3.50;1.60;;;;;;;2.15;100.00;98682.81;105358;1262;59580;-56
2023/11/25 08:39:01;;;;;;;5.70;4.10;;;;;;;2.15;100.00;98682.64;104962;1262;75741;-54
2023/11/25 08:41:29;;;;;;;6.70;3.70;;;;;;;2.14;100.00;98683.00;106470;1256;67770;-54
2023/11/25 08:43:59;;;;;;;3.00;2.30;;;;;;;2.15;100.00;98687.76;105063;1262;72261;-54
2023/11/25 08:46:26;;;;;;;7.40;1.90;;;;;;;2.16;100.00;98690.39;105695;1262;59821;-56
2023/11/25 08:48:55;;;;;;;5.40;1.80;;;;;;;2.17;100.00;98691.41;105291;1262;59746;-54
2023/11/25 08:51:22;;;;;;;5.10;2.00;;;;;;;2.19;100.00;98687.11;104972;1262;73139;-55
2023/11/25 08:53:50;;;;;;;6.30;3.00;;;;;;;2.22;100.00;98692.65;105020;1257;65845;-55
2023/11/25 08:56:18;;;;;;;5.90;2.00;;;;;;;2.27;100.00;98694.13;105781;1261;73585;-55
2023/11/25 08:58:45;;;;;;;6.30;3.10;;;;;;;2.33;100.00;98690.92;105066;1265;59828;-54
2023/11/25 09:01:13;;;;;;;6.10;2.60;;;;;;;2.37;100.00;98690.24;104919;1257;60105;-54
2023/11/25 09:03:40;;;;;;;8.00;3.10;;;;;;;2.43;100.00;98692.73;105028;1262;71529;-54
2023/11/25 09:06:08;;;;;;;4.10;2.10;;;;;;;2.47;100.00;98684.98;105087;1262;68329;-55
2023/11/25 09:08:35;;;;;;;3.60;2.00;;;;;;;2.51;100.00;98677.58;104971;1262;71825;-54
2023/11/25 09:11:03;;;;;;;6.10;2.80;;;;;;;2.54;100.00;98672.69;104894;1257;61145;-54
2023/11/25 09:13:32;;;;;;;6.60;4.00;;;;;;;2.58;100.00;98679.28;104942;1257;60459;-55
2023/11/25 09:16:00;;;;;;;12.50;3.80;;;;;;;2.63;100.00;98692.05;104997;1261;73973;-55
2023/11/25 09:18:28;;;;;;;4.90;2.30;;;;;;;2.68;100.00;98704.28;106512;1256;67090;-54
2023/11/25 09:20:57;;;;;;;6.00;2.90;;;;;;;2.73;100.00;98711.73;105029;1259;71660;-57
2023/11/25 09:23:24;;;;;;;6.00;2.50;;;;;;;2.80;100.00;98725.16;105220;1260;60432;-54
2023/11/25 09:25:52;;;;;;;4.60;2.40;;;;;;;2.87;100.00;98738.75;104960;1256;60527;-54
2023/11/25 09:28:20;;;;;;;6.00;2.40;;;;;;;2.92;100.00;98735.89;105135;1262;72058;-55
2023/11/25 09:30:47;;;;;;;21.70;10.60;;;;;;;2.97;100.00;98728.29;104908;1265;66736;-55
2023/11/25 09:33:15;;;;;;;11.60;3.50;;;;;;;3.00;100.00;98729.04;105205;1257;72857;-55
2023/11/25 09:35:43;;;;;;;4.90;1.80;;;;;;;3.03;100.00;98739.06;108772;1256;59305;-55
2023/11/25 09:38:10;;;;;;;4.60;2.10;;;;;;;3.05;100.00;98742.55;108624;1262;60084;-56
2023/11/25 09:40:39;;;;;;;2.80;1.70;;;;;;;3.07;100.00;98742.67;108742;1257;73769;-55
2023/11/25 09:43:06;;;;;;;3.40;1.50;;;;;;;3.08;100.00;98739.43;108713;1256;66418;-55
2023/11/25 09:45:34;;;;;;;7.40;1.70;;;;;;;3.07;100.00;98747.63;108634;1257;72723;-55
2023/11/25 09:48:03;;;;;;;3.30;1.80;;;;;;;3.05;100.00;98750.20;108837;1257;61129;-56
2023/11/25 09:50:30;;;;;;;4.40;1.40;;;;;;;3.03;100.00;98757.15;108703;1256;59289;-55
2023/11/25 09:52:58;;;;;;;6.60;2.70;;;;;;;3.03;100.00;98765.11;108747;1257;73004;-55
2023/11/25 09:55:26;;;;;;;6.50;1.20;;;;;;;3.04;100.00;98759.79;108645;1257;67058;-56
2023/11/25 09:57:58;;;;;;;4.30;1.80;;;;;;;3.07;100.00;98757.02;108796;1257;72786;-55
2023/11/25 10:00:27;;;;;;;4.50;1.60;;;;;;;3.10;100.00;98753.36;108658;1259;60124;-57
2023/11/25 10:02:55;;;;;;;4.40;1.20;;;;;;;3.13;100.00;98756.45;108570;1259;58931;-56
2023/11/25 10:05:23;;;;;;;2.90;1.70;;;;;;;3.15;100.00;98757.26;108506;1263;76039;-56
2023/11/25 10:07:51;;;;;;;2.10;1.40;;;;;;;3.17;100.00;98752.75;108716;1259;66730;-56
2023/11/25 10:10:23;;;;;;;2.90;1.40;;;;;;;3.19;100.00;98758.72;108663;1262;72673;-56
2023/11/25 10:12:51;;;;;;;2.70;1.50;;;;;;;3.19;100.00;98759.95;106220;1265;60490;-55
2023/11/25 10:15:20;;;;;;;4.20;1.70;;;;;;;3.20;100.00;98763.30;104827;1262;60433;-56
2023/11/25 10:17:50;;;;;;;3.80;1.70;;;;;;;3.22;100.00;98754.39;104848;1259;74749;-56
2023/11/25 10:20:22;;;;;;;4.40;1.50;;;;;;;3.23;100.00;98756.29;104818;1260;67177;-55
2023/11/25 10:22:57;;;;;;;6.90;1.50;;;;;;;3.23;100.00;98756.10;105223;1263;73330;-55
2023/11/25 10:25:26;;;;;;;6.10;1.80;;;;;;;3.23;100.00;98756.60;104881;1259;60941;-55
2023/11/25 10:27:54;;;;;;;4.80;1.40;;;;;;;3.25;100.00;98759.21;105323;1263;60613;-55
2023/11/25 10:30:23;;;;;;;3.50;1.60;;;;;;;3.27;100.00;98761.30;104938;1262;73011;-55
2023/11/25 10:32:54;;;;;;;3.30;1.40;;;;;;;3.29;100.00;98757.48;104871;1263;65818;-55
2023/11/25 10:35:24;;;;;;;5.80;2.10;;;;;;;3.31;100.00;98759.39;107439;1259;72741;-54
2023/11/25 10:37:52;;;;;;;5.70;1.70;;;;;;;3.32;100.00;98753.84;108412;1259;58788;-55
2023/11/25 10:40:21;;;;;;;5.00;2.60;;;;;;;3.32;100.00;98755.45;105455;1257;60459;-55
2023/11/25 10:42:50;;;;;;;6.80;2.30;;;;;;;3.31;100.00;98756.20;105548;1262;72707;-55
2023/11/25 10:45:18;;;;;;;5.10;2.70;;;;;;;3.29;100.00;98751.13;104883;1266;65658;-54
2023/11/25 10:47:47;;;;;;;8.40;2.50;;;;;;;3.28;100.00;98753.83;104839;1263;72798;-55
2023/11/25 10:50:14;;;;;;;4.40;2.10;;;;;;;3.27;100.00;98758.81;105086;1265;60511;-55
2023/11/25 10:52:43;;;;;;;3.40;1.70;;;;;;;3.25;100.00;98762.41;104858;1258;60735;-55
2023/11/25 10:55:11;;;;;;;4.20;1.50;;;;;;;3.23;100.00;98767.80;105322;1265;74536;-54
2023/11/25 10:57:40;;;;;;;4.00;1.70;;;;;;;3.22;100.00;98769.61;106575;1264;66833;-55
2023/11/25 11:00:11;;;;;;;6.50;2.20;;;;;;;3.21;100.00;98771.61;104934;1267;72724;-55
2023/11/25 11:02:47;;;;;;;3.90;2.10;;;;;;;3.22;100.00;98775.13;105001;1263;60445;-55
2023/11/25 11:05:18;;;;;;;4.20;1.70;;;;;;;3.24;100.00;98774.31;105086;1262;60452;-55
2023/11/25 11:07:48;;;;;;;4.40;1.60;;;;;;;3.26;100.00;98776.04;104731;1266;72660;-55
2023/11/25 11:10:19;;;;;;;5.70;2.20;;;;;;;3.27;100.00;98774.23;105050;1263;66959;-56
2023/11/25 11:12:55;;;;;;;5.50;1.80;;;;;;;3.27;100.00;98781.34;105469;1262;72739;-55
2023/11/25 11:15:23;;;;;;;6.30;2.40;;;;;;;3.25;100.00;98783.85;104992;1264;60581;-56
2023/11/25 11:17:57;;;;;;;5.60;2.50;;;;;;;3.24;100.00;98779.65;104987;1257;60613;-55
2023/11/25 11:20:27;;;;;;;4.70;2.10;;;;;;;3.22;100.00;98777.77;105059;1260;71834;-55
2023/11/25 11:22:56;;;;;;;3.60;2.40;;;;;;;3.20;100.00;98785.11;105028;1262;65317;-54
2023/11/25 11:25:28;;;;;;;4.00;1.90;;;;;;;3.18;100.00;98788.02;104959;1260;72461;-56
2023/11/25 11:28:06;;;;;;;4.80;2.60;;;;;;;3.14;100.00;98791.35;105095;1260;60553;-53
2023/11/25 11:30:56;;;;;;;7.40;2.90;;;;;;;3.10;100.00;98792.17;105161;1273;60363;-54